This is the latest recevied weather packets stored in our database for station/object VK4CWL-13. If no packets are shown the sender has not sent any weather packets the latest 10 day(s).
| Time | Temp. | Humidity | Pressure | Rain* | Wind** | Luminosity | Snow |
|---|---|---|---|---|---|---|---|
| 1778146021 | 20.56° C | 59% | 1018.6 hPa | 0 mm | - | - | - |
| 1778145719 | 21.11° C | 59% | 1018.6 hPa | 0 mm | - | - | - |
| 1778145416 | 21.11° C | 60% | 1018.5 hPa | 0 mm | - | - | - |
| 1778145116 | 21.11° C | 61% | 1018.5 hPa | 0 mm | - | - | - |
| 1778144811 | 21.11° C | 62% | 1018.5 hPa | 0 mm | - | - | - |
| 1778144509 | 21.11° C | 64% | 1018.6 hPa | 0 mm | - | - | - |
| 1778144207 | 21.11° C | 65% | 1018.5 hPa | 0 mm | - | - | - |
| 1778143905 | 21.11° C | 66% | 1018.6 hPa | 0 mm | - | - | - |
| 1778143603 | 21.11° C | 67% | 1018.6 hPa | 0 mm | - | - | - |
| 1778143302 | 21.11° C | 66% | 1018.5 hPa | 0 mm | - | - | - |
| 1778142998 | 21.11° C | 66% | 1018.5 hPa | 0 mm | - | - | - |
| 1778142698 | 21.11° C | 66% | 1018.5 hPa | 0 mm | - | - | - |
| 1778142393 | 21.11° C | 65% | 1018.5 hPa | 0 mm | - | - | - |
| 1778142091 | 21.67° C | 65% | 1018.5 hPa | 0 mm | - | - | - |
| 1778141792 | 21.67° C | 64% | 1018.3 hPa | 0 mm | - | - | - |
| 1778141486 | 21.67° C | 64% | 1018.4 hPa | 0 mm | - | - | - |
| 1778141184 | 21.67° C | 63% | 1018.4 hPa | 0 mm | - | - | - |
| 1778140882 | 21.67° C | 62% | 1018.3 hPa | 0 mm | - | - | - |
| 1778140580 | 21.67° C | 61% | 1018.2 hPa | 0 mm | - | - | - |
| 1778140278 | 22.22° C | 59% | 1018 hPa | 0 mm | - | - | - |
| 1778139977 | 22.22° C | 56% | 1017.7 hPa | 0 mm | - | - | - |
| 1778139673 | 22.22° C | 56% | 1017.6 hPa | 0 mm | - | - | - |
| 1778139370 | 22.22° C | 55% | 1017.4 hPa | 0 mm | - | - | - |
| 1778139069 | 22.22° C | 55% | 1017.4 hPa | 0 mm | - | - | - |
| 1778138766 | 22.22° C | 55% | 1017.4 hPa | 0 mm | - | - | - |
* Rain since midnight (hover to see other rain measurements)
** Current wind speed in m/s (hover to see current wind gust speed)